Time;durP1;ratioP1;P1;durP2;ratioP2;P2;SDS_P1;SDS_P2;PMS_P1;PMS_P2;Temp;Humidity;BMP_temperature;BMP_pressure;BME280_temperature;BME280_humidity;BME280_pressure;Samples;Min_cycle;Max_cycle;Signal;HPM_P1;HPM_P2
2022/09/05 00:00:04;;;;;;;3.80;3.50;;;;;;;16.81;83.05;102421.50;5014087;28;20464;-39
2022/09/05 00:02:37;;;;;;;7.23;3.73;;;;;;;16.80;83.06;102424.38;5014848;28;20831;-41
2022/09/05 00:05:33;;;;;;;4.53;4.10;;;;;;;16.75;83.20;102410.69;5013709;28;20433;-40
2022/09/05 00:08:16;;;;;;;4.47;4.07;;;;;;;16.72;83.64;102416.47;5013685;28;20564;-40
2022/09/05 00:10:54;;;;;;;3.97;3.70;;;;;;;16.67;84.03;102414.34;5012894;28;20468;-42
2022/09/05 00:13:47;;;;;;;4.40;3.97;;;;;;;16.64;84.23;102417.44;5012758;28;21128;-40
2022/09/05 00:16:34;;;;;;;4.10;3.80;;;;;;;16.61;84.42;102417.00;5013001;28;20965;-40
2022/09/05 00:19:14;;;;;;;3.77;3.57;;;;;;;16.58;84.75;102415.50;5013091;28;20436;-40
2022/09/05 00:22:28;;;;;;;4.27;3.60;;;;;;;16.54;85.13;102417.78;5013451;28;20468;-40
2022/09/05 00:25:42;;;;;;;3.80;3.50;;;;;;;16.53;85.09;102418.78;5014420;28;20440;-41
2022/09/05 00:28:22;;;;;;;5.37;3.97;;;;;;;16.49;85.44;102406.72;5012698;28;20429;-40
2022/09/05 00:31:11;;;;;;;4.17;3.83;;;;;;;16.46;85.69;102409.81;5012301;28;20843;-40
2022/09/05 00:34:08;;;;;;;4.30;3.90;;;;;;;16.44;86.02;102419.09;5010760;28;20855;-43
2022/09/05 00:36:43;;;;;;;6.00;3.63;;;;;;;16.44;86.10;102413.72;5012754;28;20437;-40
2022/09/05 00:39:16;;;;;;;4.07;3.77;;;;;;;16.43;86.04;102417.44;5013614;28;20425;-40
2022/09/05 00:41:49;;;;;;;4.03;3.60;;;;;;;16.42;86.16;102415.78;5012891;28;20479;-40
2022/09/05 00:44:20;;;;;;;3.90;3.70;;;;;;;16.41;85.88;102416.81;5012853;28;20477;-40
2022/09/05 00:46:55;;;;;;;5.03;4.13;;;;;;;16.40;86.03;102418.66;5013043;28;20437;-40
2022/09/05 00:49:27;;;;;;;8.50;4.20;;;;;;;16.37;86.56;102415.50;5013210;28;20459;-40
2022/09/05 00:52:02;;;;;;;4.00;3.80;;;;;;;16.37;86.32;102415.50;5012996;28;20449;-40
2022/09/05 00:54:43;;;;;;;5.73;3.67;;;;;;;16.37;86.33;102415.50;5029431;28;21728;-40
2022/09/05 00:57:52;;;;;;;3.80;3.60;;;;;;;16.37;86.61;102423.59;5010541;28;20437;-40
2022/09/05 01:00:22;;;;;;;4.17;3.97;;;;;;;16.34;86.73;102415.91;5012715;28;20465;-40
2022/09/05 01:03:30;;;;;;;3.90;3.20;;;;;;;16.34;86.94;102421.28;5012792;28;20448;-40
2022/09/05 01:06:12;;;;;;;4.23;4.03;;;;;;;16.35;87.43;102417.56;5008343;28;20787;-40
2022/09/05 01:09:01;;;;;;;3.60;3.40;;;;;;;16.35;87.48;102418.41;5013000;28;20802;-41
2022/09/05 01:11:44;;;;;;;3.50;3.30;;;;;;;16.34;88.01;102418.59;5007244;28;20495;-39
2022/09/05 01:14:44;;;;;;;3.80;3.60;;;;;;;16.36;88.33;102411.19;5013023;28;20425;-41
2022/09/05 01:17:23;;;;;;;3.50;3.40;;;;;;;16.35;88.03;102413.03;5006555;28;20437;-40
2022/09/05 01:20:07;;;;;;;5.43;3.83;;;;;;;16.38;88.20;102411.81;5012320;28;20463;-40
2022/09/05 01:23:14;;;;;;;4.20;3.80;;;;;;;16.38;88.96;102411.81;5000350;28;20519;-41
2022/09/05 01:25:59;;;;;;;4.00;3.70;;;;;;;16.39;89.22;102410.78;5010871;28;20439;-40
2022/09/05 01:28:35;;;;;;;3.97;3.77;;;;;;;16.41;89.46;102414.09;5012325;28;20433;-41
2022/09/05 01:31:33;;;;;;;4.87;3.77;;;;;;;16.42;89.39;102411.25;5011496;28;20488;-40
2022/09/05 01:34:11;;;;;;;3.90;3.77;;;;;;;16.42;89.49;102402.31;5011923;28;20425;-42
2022/09/05 01:36:57;;;;;;;7.90;3.97;;;;;;;16.43;89.66;102394.03;5012364;28;20462;-40
2022/09/05 01:39:36;;;;;;;4.07;3.73;;;;;;;16.43;89.99;102401.28;5012091;28;20424;-40
2022/09/05 01:42:35;;;;;;;7.83;4.10;;;;;;;16.42;89.59;102400.47;5001978;28;20523;-41
2022/09/05 01:45:10;;;;;;;4.60;3.50;;;;;;;16.41;89.97;102403.34;5012248;28;20835;-40
2022/09/05 01:47:56;;;;;;;4.27;3.60;;;;;;;16.38;90.20;102409.13;5012368;28;20448;-40
2022/09/05 01:50:42;;;;;;;4.43;3.40;;;;;;;16.36;90.22;102405.78;5011613;28;20453;-40
2022/09/05 01:53:33;;;;;;;3.37;3.17;;;;;;;16.35;90.10;102402.25;5009956;28;20483;-40
2022/09/05 01:56:35;;;;;;;3.10;2.90;;;;;;;16.33;90.19;102398.09;5024496;28;20498;-40
2022/09/05 01:59:33;;;;;;;4.10;3.80;;;;;;;16.30;90.78;102401.19;5011954;28;20441;-40
2022/09/05 02:02:16;;;;;;;3.63;3.37;;;;;;;16.27;90.34;102409.66;5011898;28;20449;-40
2022/09/05 02:05:10;;;;;;;3.90;3.70;;;;;;;16.22;91.08;102412.09;4998647;28;20500;-41
2022/09/05 02:07:58;;;;;;;4.10;3.80;;;;;;;16.20;91.55;102400.66;5012265;28;20432;-40
2022/09/05 02:10:53;;;;;;;4.03;3.50;;;;;;;16.18;91.61;102398.19;5003118;28;20457;-40
2022/09/05 02:13:28;;;;;;;4.13;3.83;;;;;;;16.16;91.83;102397.53;4999311;28;20441;-40
2022/09/05 02:16:03;;;;;;;3.70;3.40;;;;;;;16.14;91.78;102396.88;5011811;28;20952;-42
2022/09/05 02:18:52;;;;;;;6.73;3.87;;;;;;;16.12;92.04;102388.19;5011518;28;20465;-40
2022/09/05 02:21:36;;;;;;;4.10;3.77;;;;;;;16.11;92.43;102399.13;5010634;28;20473;-40
2022/09/05 02:24:34;;;;;;;5.00;3.80;;;;;;;16.09;92.68;102387.75;5011434;28;20823;-41
2022/09/05 02:27:16;;;;;;;4.63;4.30;;;;;;;16.07;92.53;102387.09;5011740;28;20969;-40
2022/09/05 02:30:08;;;;;;;4.00;3.70;;;;;;;16.04;92.85;102389.13;5008664;28;20475;-41
2022/09/05 02:32:48;;;;;;;3.70;3.50;;;;;;;16.05;92.90;102384.59;5012345;28;20460;-40
2022/09/05 02:35:24;;;;;;;4.17;3.77;;;;;;;16.04;92.65;102386.44;5012001;28;20428;-42
2022/09/05 02:37:58;;;;;;;3.90;3.70;;;;;;;16.03;92.88;102379.41;5012176;28;20424;-40
2022/09/05 02:40:54;;;;;;;4.27;3.97;;;;;;;16.00;92.82;102379.81;5011145;28;20986;-43
2022/09/05 02:43:47;;;;;;;3.90;3.57;;;;;;;16.00;92.88;102387.03;5011508;28;20428;-40
2022/09/05 02:46:45;;;;;;;4.20;3.90;;;;;;;15.98;92.21;102379.13;5011365;28;20460;-41
2022/09/05 02:49:18;;;;;;;4.17;3.63;;;;;;;15.96;92.80;102383.06;5011861;28;20949;-40
2022/09/05 02:52:11;;;;;;;4.17;3.77;;;;;;;15.95;92.88;102379.53;5005523;28;20454;-42
2022/09/05 02:55:00;;;;;;;3.37;3.17;;;;;;;15.94;92.91;102385.94;5010874;28;20436;-41
2022/09/05 02:57:54;;;;;;;4.77;4.47;;;;;;;15.92;92.71;102379.91;5010550;28;20452;-41
2022/09/05 03:00:41;;;;;;;4.83;4.33;;;;;;;15.88;92.79;102370.56;5010672;28;20555;-40
2022/09/05 03:03:19;;;;;;;3.60;3.40;;;;;;;15.88;92.61;102377.81;5011641;28;20429;-41
2022/09/05 03:05:56;;;;;;;4.43;3.50;;;;;;;15.86;92.87;102380.66;5011612;28;20471;-40
2022/09/05 03:08:42;;;;;;;5.40;3.70;;;;;;;15.86;93.00;102382.56;5011555;28;20425;-40
2022/09/05 03:11:43;;;;;;;3.47;3.27;;;;;;;15.84;93.09;102376.50;5009409;28;20476;-41
2022/09/05 03:14:50;;;;;;;3.60;3.40;;;;;;;15.83;93.12;102381.06;5010582;28;20437;-41
2022/09/05 03:18:01;;;;;;;4.17;3.87;;;;;;;15.83;92.93;102372.97;5011662;28;20787;-40
2022/09/05 03:21:21;;;;;;;4.43;4.00;;;;;;;15.79;93.39;102374.41;5021949;28;20463;-40
2022/09/05 03:24:28;;;;;;;4.40;4.03;;;;;;;15.77;93.33;102376.44;5007980;28;20432;-41
2022/09/05 03:27:27;;;;;;;3.73;3.47;;;;;;;15.75;93.27;102377.66;5007650;28;20437;-40
2022/09/05 03:30:07;;;;;;;7.43;4.20;;;;;;;15.71;93.85;102371.03;5005520;28;20511;-42
2022/09/05 03:33:10;;;;;;;4.40;4.00;;;;;;;15.67;93.72;102378.63;5010910;28;20471;-41
2022/09/05 03:36:10;;;;;;;4.03;3.50;;;;;;;15.63;93.98;102385.41;5011363;28;20787;-41
2022/09/05 03:39:07;;;;;;;6.13;4.40;;;;;;;15.59;94.47;102372.53;5011174;28;20425;-41
2022/09/05 03:41:54;;;;;;;3.83;3.63;;;;;;;15.56;95.59;102362.97;5010452;28;20469;-42
2022/09/05 03:44:36;;;;;;;6.97;3.40;;;;;;;15.53;95.22;102363.34;5007277;28;20846;-44
2022/09/05 03:47:28;;;;;;;5.07;3.67;;;;;;;15.49;95.58;102365.59;5011415;28;20417;-41
2022/09/05 03:50:07;;;;;;;6.40;3.40;;;;;;;15.47;96.15;102373.00;5010749;28;20468;-40
2022/09/05 03:53:19;;;;;;;3.80;3.60;;;;;;;15.44;96.14;102377.94;5010868;28;20971;-40
2022/09/05 03:56:33;;;;;;;4.23;3.90;;;;;;;15.42;96.07;102369.19;5011322;28;20429;-40
2022/09/05 03:59:46;;;;;;;5.33;3.43;;;;;;;15.39;96.27;102372.25;5008670;28;20537;-42
2022/09/05 04:02:17;;;;;;;5.60;4.20;;;;;;;15.37;96.46;102367.09;5014107;28;20495;-42
2022/09/05 04:05:10;;;;;;;3.80;3.50;;;;;;;15.35;96.49;102369.09;5009365;28;21040;-42
2022/09/05 04:08:07;;;;;;;4.00;3.70;;;;;;;15.32;96.72;102366.78;5014611;28;20457;-40
2022/09/05 04:11:02;;;;;;;4.73;4.43;;;;;;;15.33;96.61;102364.94;5013729;28;20469;-40
2022/09/05 04:13:35;;;;;;;3.77;3.57;;;;;;;15.31;96.61;102369.69;5014112;28;20870;-42
2022/09/05 04:16:11;;;;;;;5.13;4.73;;;;;;;15.30;96.41;102370.69;5014676;28;20440;-40
2022/09/05 04:18:42;;;;;;;4.10;3.80;;;;;;;15.30;96.33;102376.06;5014475;28;20768;-40
2022/09/05 04:21:16;;;;;;;3.57;3.37;;;;;;;15.30;96.91;102378.75;5013794;28;20465;-40
2022/09/05 04:23:58;;;;;;;4.20;3.90;;;;;;;15.31;97.45;102386.66;5014207;28;20433;-42
2022/09/05 04:26:45;;;;;;;5.50;4.03;;;;;;;15.32;97.38;102380.22;5014202;28;20465;-40
2022/09/05 04:29:19;;;;;;;3.93;3.77;;;;;;;15.35;98.19;102385.25;5014302;28;20433;-40
2022/09/05 04:31:57;;;;;;;4.80;4.30;;;;;;;15.36;97.94;102388.75;5013120;28;20468;-41
2022/09/05 04:34:57;;;;;;;5.10;4.70;;;;;;;15.40;97.74;102390.06;5014102;28;20958;-40
2022/09/05 04:37:37;;;;;;;4.50;4.10;;;;;;;15.44;97.69;102388.69;5014015;28;20426;-40
2022/09/05 04:40:54;;;;;;;7.03;4.17;;;;;;;15.49;97.47;102391.66;5013202;28;20471;-42
2022/09/05 04:43:30;;;;;;;4.30;4.00;;;;;;;15.54;96.93;102388.38;4991596;28;20445;-40
2022/09/05 04:46:07;;;;;;;3.40;3.30;;;;;;;15.58;96.46;102400.44;5008782;28;20479;-40
2022/09/05 04:48:42;;;;;;;6.33;4.03;;;;;;;15.63;96.25;102395.31;5013679;28;20487;-40
2022/09/05 04:51:29;;;;;;;4.53;4.23;;;;;;;15.68;95.52;102392.91;5013130;28;20479;-42
2022/09/05 04:54:18;;;;;;;4.40;3.67;;;;;;;15.71;95.13;102387.97;5021804;28;20452;-40
2022/09/05 04:56:50;;;;;;;6.90;3.80;;;;;;;15.77;94.40;102392.56;5007414;28;20440;-41
2022/09/05 04:59:25;;;;;;;4.83;4.23;;;;;;;15.85;94.00;102394.34;5013801;28;20429;-41
2022/09/05 05:02:19;;;;;;;5.20;4.80;;;;;;;15.90;92.91;102399.97;5009849;28;20461;-40
2022/09/05 05:05:16;;;;;;;4.57;4.13;;;;;;;16.00;92.47;102392.41;5003262;28;20483;-40
2022/09/05 05:08:12;;;;;;;4.17;3.87;;;;;;;16.11;91.25;102393.75;5005912;28;20436;-40
2022/09/05 05:10:44;;;;;;;5.20;4.10;;;;;;;16.31;90.99;102397.44;5012764;28;20475;-43
2022/09/05 05:13:42;;;;;;;5.40;4.10;;;;;;;16.55;90.21;102394.34;5013017;28;20441;-42
2022/09/05 05:16:38;;;;;;;5.47;4.40;;;;;;;16.78;88.41;102396.81;5013130;28;20510;-41
2022/09/05 05:19:30;;;;;;;4.47;4.17;;;;;;;17.03;87.67;102389.91;5012609;28;20425;-41
2022/09/05 05:22:03;;;;;;;4.30;4.00;;;;;;;17.09;84.24;102403.44;5013045;28;20445;-40
2022/09/05 05:24:37;;;;;;;4.90;4.57;;;;;;;17.19;83.64;102394.97;5012995;28;20425;-40
2022/09/05 05:27:12;;;;;;;5.53;4.70;;;;;;;17.27;82.58;102396.66;5012910;28;20476;-41
2022/09/05 05:29:48;;;;;;;4.40;4.00;;;;;;;17.45;82.55;102403.19;5012435;28;20922;-41
2022/09/05 05:32:21;;;;;;;4.10;3.90;;;;;;;17.71;82.28;102398.94;5005559;28;20476;-40
2022/09/05 05:35:12;;;;;;;4.80;4.50;;;;;;;17.89;80.00;102407.31;5012883;28;20441;-40
2022/09/05 05:37:45;;;;;;;5.07;4.77;;;;;;;18.12;80.35;102411.28;5000491;28;20424;-40
2022/09/05 05:40:24;;;;;;;5.10;4.67;;;;;;;18.21;76.88;102410.06;5012079;28;20464;-40
2022/09/05 05:42:53;;;;;;;5.93;5.43;;;;;;;18.36;76.34;102411.72;5012620;28;20531;-40
2022/09/05 05:45:26;;;;;;;7.40;5.63;;;;;;;18.45;74.82;102415.88;5012586;28;20436;-40
2022/09/05 05:47:58;;;;;;;5.13;4.57;;;;;;;18.49;73.54;102422.53;5012885;28;20421;-40
2022/09/05 05:50:36;;;;;;;5.73;5.33;;;;;;;18.55;73.27;102424.41;5012011;28;20466;-43
2022/09/05 05:53:26;;;;;;;5.47;4.97;;;;;;;18.56;73.56;102426.91;5012422;28;20424;-40
2022/09/05 05:56:35;;;;;;;6.13;5.20;;;;;;;18.64;72.87;102429.41;5009368;28;20440;-42
2022/09/05 05:59:49;;;;;;;5.70;5.43;;;;;;;18.68;71.84;102427.09;5012939;28;20774;-41
2022/09/05 06:02:54;;;;;;;5.10;4.80;;;;;;;18.73;71.17;102427.31;5010023;28;20461;-40
2022/09/05 06:06:22;;;;;;;5.40;5.07;;;;;;;18.83;71.73;102433.13;5004049;28;20772;-40
2022/09/05 06:09:40;;;;;;;4.77;4.47;;;;;;;18.94;70.36;102437.03;4997427;28;20466;-42
2022/09/05 06:13:01;;;;;;;5.93;5.60;;;;;;;19.02;69.92;102443.09;5006132;28;20484;-41
2022/09/05 06:16:22;;;;;;;5.60;5.30;;;;;;;19.14;69.81;102451.38;5005429;28;20516;-43
2022/09/05 06:19:16;;;;;;;6.13;5.73;;;;;;;19.39;68.46;102448.78;4966932;28;20436;-41
2022/09/05 06:22:11;;;;;;;5.70;5.20;;;;;;;19.54;65.66;102452.94;4999942;28;21001;-40
2022/09/05 06:25:17;;;;;;;6.57;6.10;;;;;;;19.78;66.58;102449.50;5011944;28;20431;-41
2022/09/05 06:28:04;;;;;;;6.90;6.40;;;;;;;19.96;65.97;102451.47;5010508;28;20479;-40
2022/09/05 06:30:52;;;;;;;6.60;6.10;;;;;;;20.10;65.60;102449.53;5001036;28;20551;-41
2022/09/05 06:33:52;;;;;;;6.83;6.43;;;;;;;20.13;65.06;102449.91;5011528;28;20437;-41
2022/09/05 06:36:42;;;;;;;7.33;6.83;;;;;;;20.19;65.30;102459.06;5010374;28;20429;-40
2022/09/05 06:39:16;;;;;;;7.43;6.83;;;;;;;20.69;62.65;102471.63;5011967;28;20944;-40
2022/09/05 06:42:03;;;;;;;7.10;6.60;;;;;;;20.91;60.89;102470.16;5010830;28;20913;-42
2022/09/05 06:45:06;;;;;;;6.50;6.10;;;;;;;20.71;61.14;102463.25;5011959;28;20435;-41
2022/09/05 06:48:09;;;;;;;6.57;6.00;;;;;;;20.45;61.75;102456.19;4983256;28;20610;-40
2022/09/05 06:51:09;;;;;;;5.73;5.30;;;;;;;20.59;62.85;102460.44;5004154;28;20464;-43
2022/09/05 06:54:07;;;;;;;5.50;5.10;;;;;;;20.58;61.55;102466.09;5006067;28;20448;-41
2022/09/05 06:56:49;;;;;;;6.87;6.20;;;;;;;20.57;61.01;102476.09;5010694;28;20621;-41
2022/09/05 06:59:58;;;;;;;6.00;5.70;;;;;;;20.44;61.47;102473.47;5003532;28;20932;-40
2022/09/05 07:02:33;;;;;;;6.60;6.00;;;;;;;20.18;61.56;102474.47;5011348;28;20441;-42
2022/09/05 07:05:35;;;;;;;6.23;5.83;;;;;;;20.05;62.00;102471.84;5011842;28;20463;-43
2022/09/05 07:08:23;;;;;;;6.93;6.43;;;;;;;20.13;63.01;102473.47;5011220;28;20965;-41
2022/09/05 07:11:09;;;;;;;6.37;5.97;;;;;;;20.23;63.05;102466.50;5010754;28;20547;-40
2022/09/05 07:13:54;;;;;;;7.43;5.97;;;;;;;20.24;62.39;102468.19;5011524;28;20433;-40
2022/09/05 07:16:35;;;;;;;13.80;6.17;;;;;;;20.27;62.37;102475.91;5011386;28;20442;-42
2022/09/05 07:19:32;;;;;;;6.33;5.93;;;;;;;20.45;62.31;102472.44;5011405;28;20423;-42
2022/09/05 07:22:21;;;;;;;5.40;5.10;;;;;;;20.59;61.09;102475.88;4993765;28;20826;-41
2022/09/05 07:25:13;;;;;;;6.70;6.30;;;;;;;20.49;60.89;102472.84;5011296;28;20432;-42
2022/09/05 07:27:51;;;;;;;7.23;5.10;;;;;;;20.62;60.20;102475.44;5011264;28;20478;-41
2022/09/05 07:30:41;;;;;;;5.70;5.30;;;;;;;20.70;60.23;102472.44;5011328;28;20542;-41
2022/09/05 07:33:09;;;;;;;5.83;5.43;;;;;;;20.86;60.51;102471.88;5014610;28;20429;-41
2022/09/05 07:35:39;;;;;;;5.70;5.30;;;;;;;20.81;58.76;102485.28;5015103;28;20436;-42
2022/09/05 07:38:14;;;;;;;6.00;5.60;;;;;;;21.02;59.26;102476.75;5014930;28;20918;-41
2022/09/05 07:40:50;;;;;;;5.63;5.23;;;;;;;21.25;58.15;102479.66;5010785;28;20464;-45
2022/09/05 07:43:22;;;;;;;6.07;5.57;;;;;;;21.51;56.64;102478.50;5014817;28;20428;-43
2022/09/05 07:46:02;;;;;;;6.30;5.57;;;;;;;21.94;57.45;102483.84;5015139;28;20498;-40
2022/09/05 07:48:35;;;;;;;5.77;4.90;;;;;;;22.12;54.79;102474.81;5007122;28;20489;-41
2022/09/05 07:51:06;;;;;;;5.77;5.37;;;;;;;22.42;55.39;102476.47;5014218;28;20472;-41
2022/09/05 07:53:58;;;;;;;6.53;5.93;;;;;;;22.55;53.51;102468.06;5012231;28;20432;-41
2022/09/05 07:56:49;;;;;;;5.73;5.07;;;;;;;22.30;53.93;102472.88;5013759;28;20821;-41
2022/09/05 07:59:39;;;;;;;5.97;5.17;;;;;;;22.68;53.04;102471.66;5014199;28;20822;-40
2022/09/05 08:02:10;;;;;;;5.97;5.57;;;;;;;22.79;52.35;102473.59;5034790;23;20492;-50
2022/09/05 08:04:39;;;;;;;8.13;6.90;;;;;;;22.87;51.67;102470.50;5013221;28;20424;-54
2022/09/05 08:07:11;;;;;;;5.27;4.97;;;;;;;22.97;52.38;102471.56;5014564;28;20475;-54
2022/09/05 08:10:04;;;;;;;6.23;5.83;;;;;;;22.92;51.22;102473.34;5013854;28;20456;-51
2022/09/05 08:12:39;;;;;;;5.43;5.00;;;;;;;22.87;51.46;102474.06;5003268;28;20949;-54
2022/09/05 08:15:29;;;;;;;6.30;5.70;;;;;;;22.89;51.63;102482.81;5014345;28;20822;-50
2022/09/05 08:18:22;;;;;;;5.80;5.47;;;;;;;22.92;51.99;102493.22;5014404;28;20436;-53
2022/09/05 08:20:55;;;;;;;5.70;5.30;;;;;;;22.66;52.02;102488.22;5013793;28;20468;-49
2022/09/05 08:23:36;;;;;;;5.50;5.00;;;;;;;23.04;50.88;102491.31;5014372;28;20786;-51
2022/09/05 08:26:10;;;;;;;5.40;5.00;;;;;;;23.03;50.49;102484.22;5014069;28;20805;-52
2022/09/05 08:28:52;;;;;;;6.10;5.50;;;;;;;23.14;49.93;102499.72;5013874;28;20559;-52
2022/09/05 08:31:23;;;;;;;6.37;5.97;;;;;;;23.04;50.25;102493.22;5013399;28;20502;-54
2022/09/05 08:33:59;;;;;;;5.83;5.43;;;;;;;23.28;50.64;102488.56;5013842;28;20456;-54
2022/09/05 08:36:33;;;;;;;5.70;5.23;;;;;;;23.37;51.10;102503.47;5006526;28;20447;-50
2022/09/05 08:39:04;;;;;;;5.93;5.43;;;;;;;23.44;49.42;102490.59;5014090;28;20420;-52
2022/09/05 08:41:42;;;;;;;5.80;5.40;;;;;;;23.47;49.49;102487.41;5012899;28;20559;-55
2022/09/05 08:44:31;;;;;;;5.60;5.30;;;;;;;23.83;49.20;102487.06;5013731;28;20508;-54
2022/09/05 08:47:28;;;;;;;6.27;5.37;;;;;;;23.77;48.30;102492.66;5013575;28;21029;-55
2022/09/05 08:50:38;;;;;;;5.63;5.00;;;;;;;23.79;47.95;102485.88;5013223;28;20468;-55
2022/09/05 08:53:12;;;;;;;5.20;4.70;;;;;;;23.97;48.60;102476.69;5001987;28;20474;-52
2022/09/05 08:56:04;;;;;;;5.67;4.77;;;;;;;23.97;48.83;102473.97;5017518;28;20428;-52
2022/09/05 08:58:54;;;;;;;5.57;5.03;;;;;;;23.78;47.73;102478.78;5011698;28;20783;-56
2022/09/05 09:01:59;;;;;;;5.70;5.40;;;;;;;23.73;49.88;102481.41;5010330;28;20471;-53
2022/09/05 09:05:01;;;;;;;5.60;5.20;;;;;;;23.47;49.31;102484.69;5011938;28;20437;-54
2022/09/05 09:07:35;;;;;;;5.30;5.00;;;;;;;23.37;49.50;102481.69;5013477;28;20518;-51
2022/09/05 09:10:29;;;;;;;6.17;5.77;;;;;;;23.43;49.19;102481.59;5012811;28;21016;-55
2022/09/05 09:13:28;;;;;;;6.27;5.77;;;;;;;23.10;49.36;102473.22;5012776;28;20429;-53
2022/09/05 09:16:05;;;;;;;6.23;5.80;;;;;;;22.91;49.82;102467.06;5009492;28;20445;-50
2022/09/05 09:18:41;;;;;;;5.33;4.83;;;;;;;22.93;50.73;102467.66;5013510;28;20421;-49
2022/09/05 09:21:24;;;;;;;5.70;5.40;;;;;;;23.07;50.05;102481.84;5012358;28;20471;-48
2022/09/05 09:24:05;;;;;;;5.00;4.60;;;;;;;23.10;49.93;102473.22;5012943;28;20432;-52
2022/09/05 09:26:40;;;;;;;5.77;5.37;;;;;;;23.57;49.25;102474.81;5013029;28;20448;-52
2022/09/05 09:29:12;;;;;;;5.50;5.20;;;;;;;23.56;48.30;102475.91;5012835;28;20571;-53
2022/09/05 09:31:59;;;;;;;5.73;5.13;;;;;;;23.52;48.15;102472.00;5012346;28;20555;-53
2022/09/05 09:34:50;;;;;;;5.53;5.23;;;;;;;23.57;47.50;102476.69;5012692;28;20435;-53
2022/09/05 09:37:52;;;;;;;6.10;5.50;;;;;;;23.54;48.54;102475.28;5006960;28;20945;-55
2022/09/05 09:41:02;;;;;;;6.03;5.70;;;;;;;23.62;48.73;102476.81;5002121;28;20468;-55
2022/09/05 09:43:49;;;;;;;6.90;5.80;;;;;;;23.59;47.64;102467.25;5012556;28;20429;-50
2022/09/05 09:46:29;;;;;;;5.30;5.00;;;;;;;23.89;48.70;102475.19;5010808;28;20441;-51
2022/09/05 09:49:10;;;;;;;5.13;4.80;;;;;;;23.76;48.59;102478.19;5012493;28;20476;-52
2022/09/05 09:52:20;;;;;;;5.40;5.10;;;;;;;23.76;48.84;102477.34;5001035;28;20899;-51
2022/09/05 09:55:38;;;;;;;5.03;4.73;;;;;;;23.74;48.15;102469.44;5004882;28;20443;-46
2022/09/05 09:58:38;;;;;;;6.70;6.10;;;;;;;23.61;48.94;102450.66;5011528;28;20432;-53
2022/09/05 10:01:20;;;;;;;6.50;5.83;;;;;;;24.03;48.98;102462.09;5011920;28;20468;-52
2022/09/05 10:04:25;;;;;;;6.23;5.70;;;;;;;23.83;50.58;102451.66;5010109;28;20444;-54
2022/09/05 10:07:51;;;;;;;6.13;5.50;;;;;;;24.02;50.47;102442.19;5012007;28;20952;-52
2022/09/05 10:11:17;;;;;;;11.80;6.40;;;;;;;24.45;49.23;102441.59;5011506;28;20473;-52
2022/09/05 10:14:28;;;;;;;5.83;5.20;;;;;;;24.86;48.73;102445.81;5003738;28;20938;-53
2022/09/05 10:17:42;;;;;;;5.10;4.77;;;;;;;24.75;47.15;102444.81;5011876;28;20432;-52
2022/09/05 10:20:40;;;;;;;5.90;5.30;;;;;;;24.92;47.46;102446.72;5011537;28;21025;-55
2022/09/05 10:23:27;;;;;;;8.00;6.93;;;;;;;25.05;45.43;102439.00;5009878;28;20794;-53
2022/09/05 10:26:22;;;;;;;5.90;5.60;;;;;;;25.53;44.99;102435.56;5012231;28;20432;-52
2022/09/05 10:29:05;;;;;;;5.90;5.47;;;;;;;25.54;46.42;102437.19;5004603;28;20504;-53
2022/09/05 10:31:56;;;;;;;5.53;5.03;;;;;;;25.45;45.85;102425.03;5000611;28;20988;-54
2022/09/05 10:34:56;;;;;;;5.33;5.00;;;;;;;25.02;46.03;102431.31;5010420;28;20428;-50
2022/09/05 10:37:48;;;;;;;5.30;5.00;;;;;;;25.39;46.45;102436.16;5012086;28;20444;-52
2022/09/05 10:40:22;;;;;;;5.73;5.03;;;;;;;25.19;47.72;102444.91;5009022;28;20467;-54
2022/09/05 10:42:53;;;;;;;5.27;4.90;;;;;;;25.10;48.70;102438.22;5011842;28;20762;-54
2022/09/05 10:45:38;;;;;;;11.00;5.37;;;;;;;24.55;47.88;102438.22;5010675;28;20445;-52
2022/09/05 10:48:18;;;;;;;5.57;5.20;;;;;;;24.39;48.15;102449.94;5011716;28;20424;-53
2022/09/05 10:50:53;;;;;;;5.27;4.87;;;;;;;24.65;48.71;102432.91;5011024;28;20988;-54
2022/09/05 10:53:32;;;;;;;5.37;4.87;;;;;;;24.82;48.81;102430.19;5019502;28;20423;-51
2022/09/05 10:56:11;;;;;;;6.20;5.70;;;;;;;24.62;49.50;102428.78;5015897;28;20472;-54
2022/09/05 10:59:00;;;;;;;5.47;5.07;;;;;;;24.57;49.70;102427.88;5011962;28;20774;-50
2022/09/05 11:01:59;;;;;;;6.23;5.47;;;;;;;24.24;49.63;102442.34;5008250;28;20468;-50
2022/09/05 11:04:52;;;;;;;5.80;5.40;;;;;;;23.97;50.27;102428.47;5012676;28;20425;-54
2022/09/05 11:07:31;;;;;;;4.90;4.60;;;;;;;24.10;50.93;102438.25;5015782;28;20447;-53
2022/09/05 11:10:06;;;;;;;5.37;5.00;;;;;;;24.37;50.80;102425.63;5015440;28;20803;-53
2022/09/05 11:12:57;;;;;;;5.17;4.77;;;;;;;24.57;50.74;102425.16;5015367;28;20838;-54
2022/09/05 11:15:33;;;;;;;5.40;5.10;;;;;;;24.61;48.96;102424.38;5015427;28;20805;-52
2022/09/05 11:18:07;;;;;;;5.83;5.37;;;;;;;24.67;49.28;102420.66;5015446;28;20440;-53
2022/09/05 11:20:45;;;;;;;5.10;4.70;;;;;;;24.67;49.02;102415.22;5014552;28;20480;-52
2022/09/05 11:23:19;;;;;;;5.23;4.80;;;;;;;24.79;48.09;102413.19;5015564;28;20435;-54
2022/09/05 11:25:56;;;;;;;6.50;5.73;;;;;;;24.62;47.35;102411.56;5015373;28;20441;-50
2022/09/05 11:28:34;;;;;;;4.97;4.70;;;;;;;24.40;47.04;102402.53;5014871;28;20424;-53
2022/09/05 11:31:12;;;;;;;6.33;5.73;;;;;;;24.25;47.46;102405.81;5011323;28;20846;-54
2022/09/05 11:34:26;;;;;;;6.37;5.10;;;;;;;23.94;48.63;102414.50;5012858;28;21124;-51
2022/09/05 11:37:28;;;;;;;6.43;4.90;;;;;;;23.81;49.00;102406.63;5015225;28;20429;-53
2022/09/05 11:40:31;;;;;;;8.67;5.60;;;;;;;24.34;48.90;102415.25;5005361;28;20467;-52
2022/09/05 11:43:53;;;;;;;10.47;5.77;;;;;;;24.26;48.62;102412.91;5014904;28;20440;-51
2022/09/05 11:46:47;;;;;;;6.03;5.27;;;;;;;24.62;47.83;102397.94;5012855;28;20443;-53
2022/09/05 11:49:43;;;;;;;6.17;5.23;;;;;;;24.44;47.29;102409.13;5014814;28;20486;-52
2022/09/05 11:52:39;;;;;;;5.47;5.07;;;;;;;24.21;48.06;102401.94;5009620;28;20444;-54
2022/09/05 11:55:26;;;;;;;7.43;4.93;;;;;;;24.13;48.83;102408.59;5025026;28;20430;-55
2022/09/05 11:58:08;;;;;;;6.13;5.63;;;;;;;23.64;49.06;102393.81;5014861;28;20429;-54
2022/09/05 12:01:07;;;;;;;5.80;5.30;;;;;;;23.46;49.93;102399.44;5010501;28;20467;-50
2022/09/05 12:04:15;;;;;;;6.13;5.63;;;;;;;23.26;49.97;102388.13;5009010;28;20432;-52
2022/09/05 12:07:06;;;;;;;5.93;5.40;;;;;;;23.26;50.76;102406.34;5014707;28;20440;-54
2022/09/05 12:10:09;;;;;;;7.50;5.10;;;;;;;23.37;50.10;102398.13;5005311;28;20518;-52
2022/09/05 12:13:14;;;;;;;6.20;5.40;;;;;;;23.39;49.23;102392.47;5004363;28;20781;-52
2022/09/05 12:15:45;;;;;;;6.10;5.70;;;;;;;23.32;49.46;102386.31;5014193;28;20833;-55
2022/09/05 12:18:40;;;;;;;5.70;5.20;;;;;;;23.39;50.01;102393.28;5014211;28;20439;-49
2022/09/05 12:21:25;;;;;;;6.33;4.90;;;;;;;23.36;49.21;102385.56;5013793;28;20486;-46
2022/09/05 12:23:59;;;;;;;11.50;5.17;;;;;;;23.27;49.28;102372.59;5008481;28;20436;-48
2022/09/05 12:26:54;;;;;;;5.60;5.10;;;;;;;23.25;50.07;102383.72;5013814;28;20444;-49
2022/09/05 12:29:47;;;;;;;7.73;5.30;;;;;;;23.23;49.86;102374.16;5013469;28;20476;-54
2022/09/05 12:32:48;;;;;;;5.60;5.07;;;;;;;22.93;50.16;102377.88;5013685;28;20448;-54
2022/09/05 12:35:41;;;;;;;6.37;5.70;;;;;;;22.97;50.45;102380.94;5013785;28;20957;-52
2022/09/05 12:38:36;;;;;;;5.50;5.00;;;;;;;22.80;50.45;102385.47;5013288;28;20436;-51
2022/09/05 12:41:28;;;;;;;5.37;4.90;;;;;;;22.62;50.38;102389.09;5007522;28;20468;-54
2022/09/05 12:44:31;;;;;;;6.10;5.50;;;;;;;22.54;50.30;102378.59;5013665;28;20436;-52
2022/09/05 12:47:13;;;;;;;6.67;6.07;;;;;;;22.60;50.63;102388.53;5013769;28;20433;-48
2022/09/05 12:49:58;;;;;;;11.13;6.23;;;;;;;22.89;50.23;102384.03;5003175;28;20957;-50
2022/09/05 12:52:45;;;;;;;6.83;5.87;;;;;;;22.74;49.73;102387.25;5016512;28;20432;-47
2022/09/05 12:55:24;;;;;;;7.30;5.63;;;;;;;22.88;49.22;102380.47;5023283;28;20435;-50
2022/09/05 12:57:57;;;;;;;7.00;6.30;;;;;;;22.77;49.84;102391.38;5013467;28;20432;-52
2022/09/05 13:00:46;;;;;;;6.93;6.53;;;;;;;22.96;49.75;102385.56;5001070;28;20939;-51